Aeroporto :
LOGIN :

Iscrizione | Disclaimer

   EN    FR    IT 

 










Sommario :    VFR   VFR Marginale   IFR   IFR Intensivo   IFR Molto Intensivo
Visibilità : 
Base nubi : 
>= 8 km
>= 3000ft
5 / 8 km
1000 / 3000 ft
1500m / 5 km
500 / 1000 ft
800 / 1500m
200 / 500 ft
< 800m
< 200 ft
Simboli :   Temporali  Nebbia  Neve Forte  Precipitazioni Forti  Vento > 20 kt
SIGMETs :   Varie  Temporali  Ghiacco  Turbolenza  Onda orograficha  Ceneri Vulcaniche






- Altitudine del aeroporto : 325 ft
- Codice IATA : BES


LFRB - Brest

ULTIMO METAR :
  • 140630Z AUTO 13009KT 9999 -DZ FEW035/// OVC094/// ///TCU 12/12 Q1004 TEMPO 4000 BKN007

METARs OBSOLETI :
  • 140600Z AUTO 12009KT 9999 -RA FEW025/// OVC092/// ///TCU 12/12 Q1004 TEMPO 4000 BKN007
  • 140530Z AUTO 12009KT 9999 -RA NSC 12/12 Q1004 TEMPO 4000 BKN007
  • 140500Z AUTO 13008KT 9999 -RA FEW015 BKN096 OVC120 12/11 Q1005 BECMG BKN007
  • 140430Z AUTO 13006KT 9999 -RA BKN014 BKN049 BKN062 12/11 Q1005 BECMG BKN007
  • 140400Z AUTO 16007KT 9999 -DZ FEW006 BKN018 BKN038 12/11 Q1006

TAF TAF LFRB
Valido dal 14 a 06 ore il 15 a 12 ore UTC


140500Z 1406/1512 13008KT 9999 RA BKN014
TEMPO 1406/1412 4000 BKN007
BECMG 1412/1415 22012KT NSW SCT014 SCT025
TEMPO 1415/1512 24015G25KT SHRA SCT012CB BKN020
ATIS : +33 2 98 32 02 71



MetMap, La meteo Aeronautica in un colpo d'occhio ! - Copyright ORBIFLY Dicembre 2007 - Disclaimer

ORBIFLY MET'MAP TEAM :

Programmazione e sviluppo : Alexandra Zaïnal
Concezione e sviluppo : Baudouin d'Aumeries
Co-Programmazione e sviluppo : Marc-Olivier Méhu
Supporto tecnico e logistico : Manuel Goepfert
Aiuto per la traduzione : Arnaldo La Scala

Contatto : metmap@orbifly.com




FONTI E CREDITI :

   NOAA